createdAt,value
2023-06-29T00:04:21.785Z,0.00
2023-06-29T00:14:22.356Z,0.00
2023-06-29T00:24:22.882Z,0.00
2023-06-29T00:34:23.491Z,0.00
2023-06-29T00:44:24.020Z,0.00
2023-06-29T00:54:24.595Z,0.00
2023-06-29T01:04:25.139Z,0.00
2023-06-29T01:14:25.716Z,0.00
2023-06-29T01:24:26.231Z,0.00
2023-06-29T01:34:26.813Z,0.00
2023-06-29T01:44:27.341Z,0.00
2023-06-29T01:54:27.935Z,0.00
2023-06-29T02:04:28.469Z,0.00
2023-06-29T02:14:29.009Z,0.00
2023-06-29T02:24:29.569Z,0.00
2023-06-29T02:34:30.102Z,0.00
2023-06-29T02:44:30.609Z,0.00
2023-06-29T02:54:31.214Z,0.00
2023-06-29T03:04:31.695Z,0.00
2023-06-29T03:14:32.217Z,0.00
2023-06-29T03:24:32.692Z,5.62
2023-06-29T03:34:33.203Z,5.62
2023-06-29T03:44:33.685Z,5.62
2023-06-29T03:54:34.226Z,11.25
2023-06-29T04:04:34.728Z,11.25
2023-06-29T04:14:35.237Z,22.50
2023-06-29T04:24:35.715Z,22.50
2023-06-29T04:34:36.234Z,16.88
2023-06-29T04:44:36.791Z,16.88
2023-06-29T04:54:37.333Z,67.50
2023-06-29T05:04:37.817Z,101.25
2023-06-29T05:14:38.324Z,106.88
2023-06-29T05:24:38.803Z,106.88
2023-06-29T05:34:39.331Z,118.12
2023-06-29T05:44:39.795Z,118.12
2023-06-29T05:54:47.358Z,84.38
2023-06-29T06:04:40.827Z,95.62
2023-06-29T06:14:41.456Z,61.88
2023-06-29T06:24:41.902Z,61.88
2023-06-29T06:34:42.422Z,67.50
2023-06-29T06:44:42.941Z,73.12
2023-06-29T06:54:43.479Z,61.88
2023-06-29T07:04:43.981Z,78.75
2023-06-29T07:14:44.511Z,56.25
2023-06-29T07:24:44.991Z,50.62
2023-06-29T07:34:45.511Z,50.62
2023-06-29T07:44:45.970Z,50.62
2023-06-29T07:54:46.524Z,50.62
2023-06-29T08:14:47.910Z,56.25
2023-06-29T08:24:48.390Z,61.88
2023-06-29T08:34:48.897Z,56.25
2023-06-29T08:44:49.376Z,56.25
2023-06-29T08:54:49.881Z,61.88
2023-06-29T09:04:50.359Z,61.88
2023-06-29T09:14:50.875Z,73.12
2023-06-29T09:25:04.715Z,61.88
2023-06-29T09:34:53.336Z,61.88
2023-06-29T09:44:52.852Z,78.75
2023-06-29T09:54:53.354Z,106.88
2023-06-29T10:04:54.949Z,129.38
2023-06-29T10:14:54.517Z,185.62
2023-06-29T10:24:55.004Z,163.12
2023-06-29T10:34:55.533Z,112.50
2023-06-29T10:44:56.030Z,196.88
2023-06-29T10:54:56.565Z,140.62
2023-06-29T11:04:57.046Z,151.88
2023-06-29T11:25:00.584Z,106.88
2023-06-29T11:34:59.166Z,112.50
2023-06-29T11:44:59.611Z,151.88
2023-06-29T11:55:07.142Z,106.88
2023-06-29T12:05:00.732Z,106.88
2023-06-29T12:15:01.321Z,191.25
2023-06-29T12:25:01.773Z,90.00
2023-06-29T12:35:02.310Z,101.25
2023-06-29T12:45:02.766Z,95.62
2023-06-29T12:55:03.293Z,90.00
2023-06-29T13:05:03.786Z,78.75
2023-06-29T13:15:04.311Z,95.62
2023-06-29T13:25:04.792Z,129.38
2023-06-29T13:35:05.318Z,140.62
2023-06-29T13:45:05.792Z,106.88
2023-06-29T13:55:06.291Z,101.25
2023-06-29T14:05:06.764Z,106.88
2023-06-29T14:15:07.290Z,95.62
2023-06-29T14:25:07.780Z,106.88
2023-06-29T14:35:08.359Z,106.88
2023-06-29T14:45:08.828Z,101.25
2023-06-29T14:55:09.368Z,95.62
2023-06-29T15:05:09.837Z,61.88
2023-06-29T15:15:11.845Z,67.50
2023-06-29T15:25:11.164Z,67.50
2023-06-29T15:35:11.742Z,39.38
2023-06-29T15:45:12.229Z,45.00
2023-06-29T15:55:12.765Z,50.62
2023-06-29T16:05:13.235Z,50.62
2023-06-29T16:15:13.778Z,45.00
2023-06-29T16:25:14.262Z,33.75
2023-06-29T16:35:14.770Z,28.12
2023-06-29T16:45:15.268Z,28.12
2023-06-29T16:55:15.832Z,16.88
2023-06-29T17:05:16.297Z,22.50
2023-06-29T17:15:16.809Z,28.12
2023-06-29T17:25:17.293Z,22.50
2023-06-29T17:35:17.824Z,11.25
2023-06-29T17:45:18.298Z,11.25
2023-06-29T17:55:18.821Z,11.25
2023-06-29T18:05:26.418Z,5.62
2023-06-29T18:15:19.932Z,5.62
2023-06-29T18:25:20.402Z,5.62
2023-06-29T18:35:20.942Z,0.00
2023-06-29T18:45:21.453Z,0.00
2023-06-29T18:55:21.981Z,0.00
2023-06-29T19:05:22.469Z,0.00
2023-06-29T19:15:22.993Z,0.00
2023-06-29T19:25:23.484Z,0.00
2023-06-29T19:35:24.012Z,0.00
2023-06-29T19:45:24.583Z,0.00
2023-06-29T19:55:25.102Z,0.00
2023-06-29T20:05:25.600Z,0.00
2023-06-29T20:15:26.157Z,0.00
2023-06-29T20:25:26.698Z,0.00
2023-06-29T20:35:27.263Z,0.00
2023-06-29T20:45:27.966Z,0.00
2023-06-29T20:55:28.523Z,0.00
2023-06-29T21:05:29.106Z,0.00
2023-06-29T21:15:29.852Z,0.00
2023-06-29T21:25:30.404Z,0.00
2023-06-29T21:35:30.974Z,0.00
2023-06-29T21:45:31.519Z,0.00
2023-06-29T21:55:32.088Z,0.00
2023-06-29T22:05:32.623Z,0.00
2023-06-29T22:15:33.227Z,0.00
2023-06-29T22:25:33.786Z,0.00
2023-06-29T22:35:34.434Z,0.00
2023-06-29T22:45:35.004Z,0.00
2023-06-29T22:55:35.575Z,0.00
2023-06-29T23:05:36.125Z,0.00
2023-06-29T23:15:36.690Z,0.00
2023-06-29T23:25:37.292Z,0.00
2023-06-29T23:35:37.888Z,0.00
2023-06-29T23:45:38.421Z,0.00
2023-06-29T23:55:39.061Z,0.00
